createdAt,value
2023-03-07T00:01:51.786Z,96860.59
2023-03-07T00:04:23.052Z,96858.97
2023-03-07T00:06:53.656Z,96857.47
2023-03-07T00:09:24.084Z,96862.84
2023-03-07T00:11:53.371Z,96862.50
2023-03-07T00:14:22.357Z,96856.50
2023-03-07T00:16:53.612Z,96852.50
2023-03-07T00:19:25.063Z,96850.53
2023-03-07T00:21:54.570Z,96848.91
2023-03-07T00:24:25.196Z,96843.75
2023-03-07T00:26:54.149Z,96842.16
2023-03-07T00:29:24.293Z,96842.97
2023-03-07T00:31:53.770Z,96846.88
2023-03-07T00:34:24.720Z,96840.91
2023-03-07T00:36:55.581Z,96845.44
2023-03-07T00:39:26.394Z,96846.06
2023-03-07T00:41:56.381Z,96840.56
2023-03-07T00:44:30.762Z,96842.50
2023-03-07T00:47:01.870Z,96838.59
2023-03-07T00:49:33.101Z,96834.75
2023-03-07T00:52:03.631Z,96837.69
2023-03-07T00:54:33.030Z,96837.69
2023-03-07T00:57:02.849Z,96839.28
2023-03-07T00:59:31.810Z,96832.53
2023-03-07T01:02:02.471Z,96837.50
2023-03-07T01:04:35.279Z,96834.13
2023-03-07T01:07:05.379Z,96837.34
2023-03-07T01:09:35.474Z,96835.28
2023-03-07T01:12:07.918Z,96826.56
2023-03-07T01:14:38.434Z,96819.63
2023-03-07T01:17:07.998Z,96820.25
2023-03-07T01:19:38.806Z,96815.56
2023-03-07T01:22:08.804Z,96811.69
2023-03-07T01:24:37.270Z,96811.88
2023-03-07T01:27:08.003Z,96808.63
2023-03-07T01:29:37.556Z,96809.28
2023-03-07T01:32:08.220Z,96803.13
2023-03-07T01:34:39.015Z,96805.44
2023-03-07T01:37:08.387Z,96796.03
2023-03-07T01:39:37.740Z,96799.72
2023-03-07T01:42:07.159Z,96794.06
2023-03-07T01:45:07.110Z,96798.59
2023-03-07T01:47:37.025Z,96789.69
2023-03-07T01:50:14.337Z,96793.56
2023-03-07T01:52:49.361Z,96793.34
2023-03-07T01:55:23.721Z,96788.19
2023-03-07T01:57:54.137Z,96775.47
2023-03-07T02:00:28.772Z,96778.06
2023-03-07T02:03:12.757Z,96763.69
2023-03-07T02:05:51.669Z,96765.13
2023-03-07T02:08:26.014Z,96756.38
2023-03-07T02:10:56.776Z,96751.22
2023-03-07T02:13:26.744Z,96748.47
2023-03-07T02:15:59.051Z,96743.31
2023-03-07T02:18:37.246Z,96747.22
2023-03-07T02:21:19.155Z,96738.50
2023-03-07T02:24:00.606Z,96743.31
2023-03-07T02:27:02.963Z,96741.34
2023-03-07T02:29:32.604Z,96737.97
2023-03-07T02:32:02.214Z,96742.50
2023-03-07T02:34:33.046Z,96731.00
2023-03-07T02:37:08.902Z,96741.34
2023-03-07T02:39:40.281Z,96739.31
2023-03-07T02:42:15.661Z,96733.94
2023-03-07T02:44:47.627Z,96734.28
2023-03-07T02:47:17.193Z,96731.72
2023-03-07T02:49:47.148Z,96738.94
2023-03-07T02:52:17.802Z,96737.78
2023-03-07T02:54:48.026Z,96740.22
2023-03-07T02:57:20.475Z,96737.16
2023-03-07T02:59:49.892Z,96726.28
2023-03-07T03:02:19.590Z,96722.66
2023-03-07T03:04:49.615Z,96729.44
2023-03-07T03:07:19.821Z,96724.06
2023-03-07T03:09:49.686Z,96723.56
2023-03-07T03:12:21.435Z,96728.56
2023-03-07T03:14:50.880Z,96719.66
2023-03-07T03:17:20.725Z,96716.09
2023-03-07T03:19:50.008Z,96719.09
2023-03-07T03:22:20.600Z,96701.38
2023-03-07T03:24:51.100Z,96706.38
2023-03-07T03:27:22.490Z,96704.13
2023-03-07T03:29:55.360Z,96704.13
2023-03-07T03:32:24.399Z,96700.22
2023-03-07T03:34:53.855Z,96700.22
2023-03-07T03:37:22.713Z,96702.63
2023-03-07T03:39:54.962Z,96691.75
2023-03-07T03:42:26.098Z,96695.16
2023-03-07T03:44:56.078Z,96686.59
2023-03-07T03:47:25.390Z,96685.34
2023-03-07T03:49:54.284Z,96688.53
2023-03-07T03:52:24.059Z,96681.94
2023-03-07T03:54:54.143Z,96675.63
2023-03-07T03:57:26.125Z,96673.22
2023-03-07T03:59:57.343Z,96670.44
2023-03-07T04:02:31.081Z,96674.19
2023-03-07T04:05:02.314Z,96663.25
2023-03-07T04:07:32.258Z,96667.97
2023-03-07T04:10:01.694Z,96665.38
2023-03-07T04:12:33.052Z,96661.19
2023-03-07T04:15:02.594Z,96649.06
2023-03-07T04:17:33.456Z,96661.81
2023-03-07T04:20:04.940Z,96660.22
2023-03-07T04:22:34.952Z,96655.03
2023-03-07T04:25:04.944Z,96656.66
2023-03-07T04:27:35.441Z,96647.28
2023-03-07T04:30:06.230Z,96642.94
2023-03-07T04:32:35.407Z,96638.91
2023-03-07T04:35:05.592Z,96638.75
2023-03-07T04:37:34.595Z,96640.50
2023-03-07T04:40:04.891Z,96625.81
2023-03-07T04:42:35.508Z,96632.59
2023-03-07T04:45:05.684Z,96625.00
2023-03-07T04:47:36.159Z,96632.41
2023-03-07T04:50:07.224Z,96626.25
2023-03-07T04:52:37.118Z,96630.47
2023-03-07T04:55:07.406Z,96624.66
2023-03-07T04:57:38.779Z,96619.50
2023-03-07T05:00:13.239Z,96619.13
2023-03-07T05:02:45.268Z,96621.09
2023-03-07T05:05:14.169Z,96614.31
2023-03-07T05:07:43.516Z,96618.69
2023-03-07T05:10:17.045Z,96614.06
2023-03-07T05:12:47.428Z,96610.31
2023-03-07T05:15:18.028Z,96608.91
2023-03-07T05:17:48.016Z,96602.94
2023-03-07T05:20:17.563Z,96609.50
2023-03-07T05:22:47.009Z,96600.34
2023-03-07T05:25:16.118Z,96600.88
2023-03-07T05:27:47.174Z,96596.88
2023-03-07T05:30:18.019Z,96596.41
2023-03-07T05:32:48.573Z,96596.06
2023-03-07T05:35:18.935Z,96604.63
2023-03-07T05:37:49.490Z,96596.06
2023-03-07T05:40:21.070Z,96599.00
2023-03-07T05:42:51.992Z,96596.59
2023-03-07T05:45:22.557Z,96592.88
2023-03-07T05:47:51.546Z,96602.75
2023-03-07T05:50:21.088Z,96599.38
2023-03-07T05:52:50.528Z,96596.13
2023-03-07T05:55:20.697Z,96602.47
2023-03-07T05:57:52.827Z,96592.59
2023-03-07T06:00:23.468Z,96589.03
2023-03-07T06:02:54.046Z,96597.13
2023-03-07T06:05:25.336Z,96596.41
2023-03-07T06:07:55.996Z,96596.03
2023-03-07T06:10:26.414Z,96588.22
2023-03-07T06:12:57.310Z,96598.72
2023-03-07T06:15:26.734Z,96596.50
2023-03-07T06:17:55.602Z,96603.53
2023-03-07T06:20:24.375Z,96596.78
2023-03-07T06:22:54.363Z,96599.00
2023-03-07T06:25:25.109Z,96593.47
2023-03-07T06:28:00.955Z,96595.91
2023-03-07T06:30:30.239Z,96593.84
2023-03-07T06:32:59.287Z,96598.47
2023-03-07T06:35:29.372Z,96601.22
2023-03-07T06:37:59.924Z,96604.69
2023-03-07T06:40:29.897Z,96599.91
2023-03-07T06:43:00.654Z,96601.50
2023-03-07T06:45:30.253Z,96605.50
2023-03-07T06:48:01.416Z,96600.97
2023-03-07T06:50:35.405Z,96608.25
2023-03-07T06:53:05.833Z,96599.47
2023-03-07T06:55:36.515Z,96603.63
2023-03-07T06:58:07.500Z,96602.50
2023-03-07T07:00:38.448Z,96602.28
2023-03-07T07:03:08.529Z,96604.88
2023-03-07T07:05:39.026Z,96596.31
2023-03-07T07:08:08.653Z,96608.88
2023-03-07T07:10:39.256Z,96598.72
2023-03-07T07:13:09.792Z,96595.50
2023-03-07T07:15:40.430Z,96596.41
2023-03-07T07:18:11.430Z,96597.84
2023-03-07T07:20:40.974Z,96595.78
2023-03-07T07:23:11.653Z,96598.38
2023-03-07T07:25:41.694Z,96594.81
2023-03-07T07:28:13.236Z,96593.19
2023-03-07T07:30:43.986Z,96589.09
2023-03-07T07:33:13.612Z,96584.91
2023-03-07T07:35:45.620Z,96591.06
2023-03-07T07:38:15.663Z,96589.72
2023-03-07T07:40:45.654Z,96585.97
2023-03-07T07:43:19.670Z,96585.38
2023-03-07T07:45:49.666Z,96582.78
2023-03-07T07:48:20.128Z,96584.47
2023-03-07T07:50:49.630Z,96573.94
2023-03-07T07:53:18.621Z,96576.88
2023-03-07T07:55:49.612Z,96570.53
2023-03-07T07:58:20.965Z,96578.13
2023-03-07T08:00:49.411Z,96572.59
2023-03-07T08:03:19.269Z,96581.53
2023-03-07T08:05:51.310Z,96559.03
2023-03-07T08:08:22.017Z,96566.63
2023-03-07T08:10:51.404Z,96555.75
2023-03-07T08:13:23.270Z,96563.94
2023-03-07T08:15:52.826Z,96557.97
2023-03-07T08:18:22.499Z,96557.97
2023-03-07T08:20:52.879Z,96550.56
2023-03-07T08:23:22.950Z,96569.38
2023-03-07T08:25:53.495Z,96559.91
2023-03-07T08:28:24.678Z,96568.09
2023-03-07T08:30:54.172Z,96562.75
2023-03-07T08:33:24.311Z,96561.94
2023-03-07T08:35:54.879Z,96564.00
2023-03-07T08:38:27.700Z,96551.69
2023-03-07T08:41:02.218Z,96552.91
2023-03-07T08:43:34.913Z,96556.16
2023-03-07T08:46:05.726Z,96560.13
2023-03-07T08:48:35.778Z,96550.59
2023-03-07T08:51:12.052Z,96545.66
2023-03-07T08:53:43.603Z,96551.47
2023-03-07T08:56:16.764Z,96549.06
2023-03-07T08:58:47.640Z,96547.16
2023-03-07T09:01:17.600Z,96547.78
2023-03-07T09:03:48.771Z,96546.16
2023-03-07T09:06:21.939Z,96540.81
2023-03-07T09:08:52.309Z,96540.59
2023-03-07T09:11:23.294Z,96538.47
2023-03-07T09:13:54.733Z,96522.59
2023-03-07T09:16:25.296Z,96536.50
2023-03-07T09:18:55.807Z,96532.41
2023-03-07T09:21:25.708Z,96528.31
2023-03-07T09:23:56.306Z,96536.28
2023-03-07T09:26:25.605Z,96538.50
2023-03-07T09:28:56.506Z,96526.38
2023-03-07T09:31:26.206Z,96519.41
2023-03-07T09:33:55.110Z,96534.81
2023-03-07T09:36:24.615Z,96533.25
2023-03-07T09:38:54.354Z,96536.03
2023-03-07T09:41:54.010Z,96523.94
2023-03-07T09:44:43.324Z,96515.03
2023-03-07T09:47:42.294Z,96526.78
2023-03-07T09:50:21.785Z,96513.44
2023-03-07T09:52:59.698Z,96509.06
2023-03-07T09:55:33.070Z,96509.09
2023-03-07T09:58:10.236Z,96509.69
2023-03-07T10:00:46.009Z,96505.13
2023-03-07T10:03:32.434Z,96490.81
2023-03-07T10:06:13.568Z,96497.81
2023-03-07T10:08:42.650Z,96494.28
2023-03-07T10:11:30.966Z,96491.69
2023-03-07T10:14:43.753Z,96489.66
2023-03-07T10:17:26.365Z,96487.69
2023-03-07T10:20:09.244Z,96479.75
2023-03-07T10:22:51.016Z,96479.56
2023-03-07T10:25:28.768Z,96486.38
2023-03-07T10:28:14.184Z,96468.00
2023-03-07T10:30:45.492Z,96471.59
2023-03-07T10:33:21.774Z,96471.41
2023-03-07T10:35:59.614Z,96457.88
2023-03-07T10:38:37.656Z,96458.50
2023-03-07T10:41:16.372Z,96463.13
2023-03-07T10:43:47.429Z,96456.56
2023-03-07T10:46:27.455Z,96440.41
2023-03-07T10:49:16.536Z,96443.22
2023-03-07T10:51:59.557Z,96441.22
2023-03-07T10:54:33.138Z,96437.25
2023-03-07T10:57:11.864Z,96443.66
2023-03-07T10:59:44.237Z,96446.06
2023-03-07T11:02:33.011Z,96446.06
2023-03-07T11:05:19.646Z,96442.13
2023-03-07T11:07:49.789Z,96451.13
2023-03-07T11:10:36.039Z,96463.88
2023-03-07T11:13:16.838Z,96459.28
2023-03-07T11:15:47.211Z,96456.03
2023-03-07T11:18:31.000Z,96454.44
2023-03-07T11:21:01.993Z,96457.69
2023-03-07T11:23:34.033Z,96451.66
2023-03-07T11:26:19.666Z,96452.69
2023-03-07T11:28:48.964Z,96447.91
2023-03-07T11:31:29.042Z,96448.94
2023-03-07T11:34:06.587Z,96442.31
2023-03-07T11:36:40.962Z,96450.09
2023-03-07T11:39:25.661Z,96450.09
2023-03-07T11:42:04.477Z,96444.75
2023-03-07T11:44:41.583Z,96451.72
2023-03-07T11:47:35.054Z,96450.50
2023-03-07T11:50:22.442Z,96451.50
2023-03-07T11:53:39.195Z,96452.25
2023-03-07T11:56:31.593Z,96450.44
2023-03-07T11:59:48.368Z,96452.41
2023-03-07T12:02:43.993Z,96443.25
2023-03-07T12:05:44.249Z,96439.25
2023-03-07T12:08:39.526Z,96433.28
2023-03-07T12:11:30.474Z,96434.88
2023-03-07T12:14:17.709Z,96432.69
2023-03-07T12:17:02.252Z,96422.50
2023-03-07T12:20:09.133Z,96427.69
2023-03-07T12:22:56.509Z,96410.16
2023-03-07T12:25:32.878Z,96419.31
2023-03-07T12:28:16.450Z,96409.34
2023-03-07T12:31:03.549Z,96415.75
2023-03-07T12:33:52.197Z,96418.72
2023-03-07T12:36:32.829Z,96423.31
2023-03-07T12:39:15.892Z,96408.97
2023-03-07T12:41:58.590Z,96417.31
2023-03-07T12:45:00.741Z,96412.53
2023-03-07T12:47:52.309Z,96415.13
2023-03-07T12:50:30.746Z,96417.13
2023-03-07T12:53:12.830Z,96409.34
2023-03-07T12:55:46.284Z,96416.91
2023-03-07T12:58:33.639Z,96422.88
2023-03-07T13:01:11.868Z,96428.44
2023-03-07T13:03:52.534Z,96420.47
2023-03-07T13:06:25.795Z,96432.03
2023-03-07T13:09:01.197Z,96425.88
2023-03-07T13:11:34.931Z,96430.00
2023-03-07T13:14:06.792Z,96420.28
2023-03-07T13:16:44.912Z,96439.00
2023-03-07T13:19:56.016Z,96428.00
2023-03-07T13:23:15.115Z,96425.19
2023-03-07T13:26:16.445Z,96433.78
2023-03-07T13:28:58.122Z,96443.16
2023-03-07T13:31:46.495Z,96437.91
2023-03-07T13:34:51.681Z,96435.78
2023-03-07T13:37:53.873Z,96433.38
2023-03-07T13:40:55.082Z,96436.09
2023-03-07T13:44:02.682Z,96436.53
2023-03-07T13:46:59.352Z,96452.69
2023-03-07T13:49:50.002Z,96448.31
2023-03-07T13:52:45.300Z,96446.69
2023-03-07T13:55:30.128Z,96444.66
2023-03-07T13:58:07.700Z,96449.81
2023-03-07T14:00:50.775Z,96446.88
2023-03-07T14:03:31.005Z,96436.91
2023-03-07T14:06:13.041Z,96425.78
2023-03-07T14:08:45.394Z,96433.38
2023-03-07T14:11:25.628Z,96424.41
2023-03-07T14:14:46.417Z,96430.03
2023-03-07T14:17:36.439Z,96428.44
2023-03-07T14:20:20.625Z,96419.47
2023-03-07T14:23:23.280Z,96420.47
2023-03-07T14:25:59.712Z,96423.44
2023-03-07T14:28:30.148Z,96418.88
2023-03-07T14:31:02.380Z,96419.88
2023-03-07T14:33:36.798Z,96424.09
2023-03-07T14:36:21.472Z,96409.50
2023-03-07T14:38:56.198Z,96416.50
2023-03-07T14:41:43.318Z,96411.31
2023-03-07T14:45:27.841Z,96404.97
2023-03-07T14:48:37.043Z,96396.97
2023-03-07T14:51:17.599Z,96398.19
2023-03-07T14:53:48.204Z,96400.19
2023-03-07T14:56:25.288Z,96396.97
2023-03-07T14:59:00.901Z,96397.97
2023-03-07T15:01:35.461Z,96395.00
2023-03-07T15:04:09.989Z,96393.41
2023-03-07T15:06:47.583Z,96395.00
2023-03-07T15:09:18.096Z,96382.63
2023-03-07T15:11:56.166Z,96386.88
2023-03-07T15:14:41.203Z,96392.63
2023-03-07T15:17:18.269Z,96375.50
2023-03-07T15:19:54.297Z,96378.69
2023-03-07T15:22:29.521Z,96376.31
2023-03-07T15:24:59.584Z,96376.88
2023-03-07T15:27:31.515Z,96378.28
2023-03-07T15:30:03.796Z,96370.91
2023-03-07T15:32:39.908Z,96379.66
2023-03-07T15:35:20.298Z,96381.69
2023-03-07T15:37:57.682Z,96381.50
2023-03-07T15:40:50.375Z,96383.47
2023-03-07T15:43:30.162Z,96379.47
2023-03-07T15:46:09.368Z,96379.28
2023-03-07T15:48:43.967Z,96387.25
2023-03-07T15:51:20.717Z,96382.66
2023-03-07T15:53:59.368Z,96389.69
2023-03-07T15:56:34.019Z,96376.69
2023-03-07T15:59:17.714Z,96374.47
2023-03-07T16:01:47.578Z,96376.69
2023-03-07T16:04:38.852Z,96376.31
2023-03-07T16:07:19.077Z,96376.50
2023-03-07T16:09:50.799Z,96378.91
2023-03-07T16:12:25.239Z,96376.47
2023-03-07T16:14:57.312Z,96375.91
2023-03-07T16:17:35.130Z,96376.31
2023-03-07T16:20:06.354Z,96376.69
2023-03-07T16:22:35.369Z,96384.28
2023-03-07T16:25:07.716Z,96396.25
2023-03-07T16:27:36.852Z,96389.84
2023-03-07T16:30:15.712Z,96394.06
2023-03-07T16:32:45.114Z,96393.03
2023-03-07T16:35:22.008Z,96392.63
2023-03-07T16:37:51.864Z,96387.44
2023-03-07T16:40:22.861Z,96391.06
2023-03-07T16:42:52.561Z,96394.06
2023-03-07T16:45:26.594Z,96398.63
2023-03-07T16:47:59.633Z,96394.06
2023-03-07T16:50:32.330Z,96393.84
2023-03-07T16:53:01.205Z,96387.84
2023-03-07T16:55:34.311Z,96395.03
2023-03-07T16:58:07.245Z,96397.47
2023-03-07T17:00:37.794Z,96403.81
2023-03-07T17:03:08.039Z,96409.81
2023-03-07T17:05:36.420Z,96411.41
2023-03-07T17:08:06.070Z,96410.44
2023-03-07T17:10:38.221Z,96408.41
2023-03-07T17:13:15.445Z,96412.00
2023-03-07T17:15:45.716Z,96422.59
2023-03-07T17:18:15.930Z,96417.59
2023-03-07T17:20:46.059Z,96423.41
2023-03-07T17:23:15.650Z,96426.97
2023-03-07T17:25:46.930Z,96422.59
2023-03-07T17:28:19.829Z,96421.56
2023-03-07T17:30:50.783Z,96427.78
2023-03-07T17:33:20.393Z,96425.19
2023-03-07T17:35:50.171Z,96429.16
2023-03-07T17:38:22.964Z,96433.38
2023-03-07T17:40:58.229Z,96425.97
2023-03-07T17:43:27.845Z,96424.16
